createdAt,value
2023-03-22T00:02:18.344Z,4.20
2023-03-22T00:04:54.261Z,2.80
2023-03-22T00:07:23.554Z,2.73
2023-03-22T00:09:52.524Z,5.10
2023-03-22T00:12:27.317Z,3.00
2023-03-22T00:14:55.813Z,6.60
2023-03-22T00:17:33.266Z,3.03
2023-03-22T00:20:00.620Z,7.53
2023-03-22T00:22:34.328Z,6.37
2023-03-22T00:25:04.049Z,4.07
2023-03-22T00:27:38.313Z,4.23
2023-03-22T00:30:14.347Z,3.40
2023-03-22T00:32:45.494Z,3.70
2023-03-22T00:35:19.339Z,4.87
2023-03-22T00:37:50.896Z,3.03
2023-03-22T00:40:25.425Z,4.00
2023-03-22T00:42:52.761Z,2.87
2023-03-22T00:45:26.421Z,5.47
2023-03-22T00:48:00.426Z,3.17
2023-03-22T00:50:27.911Z,3.83
2023-03-22T00:53:02.428Z,4.03
2023-03-22T00:55:30.000Z,3.20
2023-03-22T00:57:59.097Z,3.13
2023-03-22T01:00:33.490Z,5.23
2023-03-22T01:03:10.363Z,3.13
2023-03-22T01:05:44.449Z,2.60
2023-03-22T01:08:14.967Z,6.17
2023-03-22T01:10:44.301Z,3.67
2023-03-22T01:13:25.401Z,4.17
2023-03-22T01:15:52.769Z,5.30
2023-03-22T01:18:28.450Z,4.40
2023-03-22T01:21:02.399Z,4.50
2023-03-22T01:23:43.416Z,4.13
2023-03-22T01:26:17.411Z,4.27
2023-03-22T01:28:52.392Z,3.47
2023-03-22T01:31:26.676Z,4.50
2023-03-22T01:34:00.409Z,4.23
2023-03-22T01:36:36.491Z,7.10
2023-03-22T01:39:11.621Z,5.20
2023-03-22T01:41:39.108Z,3.73
2023-03-22T01:44:25.539Z,5.10
2023-03-22T01:46:54.380Z,6.17
2023-03-22T01:49:37.580Z,4.03
2023-03-22T01:52:11.294Z,4.67
2023-03-22T01:54:57.574Z,7.47
2023-03-22T01:57:32.534Z,4.43
2023-03-22T02:00:07.568Z,6.67
2023-03-22T02:02:41.610Z,7.47
2023-03-22T02:05:09.515Z,4.60
2023-03-22T02:07:46.518Z,3.70
2023-03-22T02:10:27.567Z,4.63
2023-03-22T02:13:19.626Z,4.63
2023-03-22T02:16:14.283Z,7.57
2023-03-22T02:18:52.379Z,5.77
2023-03-22T02:21:57.241Z,4.10
2023-03-22T02:24:56.329Z,3.80
2023-03-22T02:27:54.231Z,4.03
2023-03-22T02:30:46.252Z,5.53
2023-03-22T02:33:41.671Z,5.33
2023-03-22T02:36:26.254Z,3.53
2023-03-22T02:39:12.296Z,4.00
2023-03-22T02:42:01.314Z,5.07
2023-03-22T02:45:16.194Z,3.33
2023-03-22T02:48:13.569Z,4.87
2023-03-22T02:50:54.605Z,4.73
2023-03-22T02:53:37.690Z,5.37
2023-03-22T02:56:16.375Z,6.43
2023-03-22T02:59:00.266Z,5.03
2023-03-22T03:01:32.597Z,3.60
2023-03-22T03:04:11.278Z,2.60
2023-03-22T03:06:46.053Z,3.90
2023-03-22T03:09:24.245Z,3.70
2023-03-22T03:12:00.495Z,6.13
2023-03-22T03:14:39.230Z,3.13
2023-03-22T03:17:39.242Z,4.40
2023-03-22T03:20:39.769Z,5.20
2023-03-22T03:23:42.542Z,5.30
2023-03-22T03:26:53.770Z,3.73
2023-03-22T03:29:51.766Z,2.90
2023-03-22T03:33:05.765Z,5.57
2023-03-22T03:35:44.079Z,4.97
2023-03-22T03:38:26.784Z,5.97
2023-03-22T03:41:04.417Z,4.90
2023-03-22T03:43:40.728Z,4.53
2023-03-22T03:46:09.603Z,3.37
2023-03-22T03:48:47.772Z,4.07
2023-03-22T03:51:22.784Z,5.07
2023-03-22T03:53:50.367Z,6.87
2023-03-22T03:56:24.764Z,3.43
2023-03-22T03:58:52.137Z,6.00
2023-03-22T04:01:27.807Z,4.40
2023-03-22T04:03:56.975Z,7.17
2023-03-22T04:06:30.960Z,5.00
2023-03-22T04:08:58.381Z,4.40
2023-03-22T04:11:34.353Z,5.53
2023-03-22T04:14:16.041Z,5.60
2023-03-22T04:16:43.702Z,6.03
2023-03-22T04:19:18.063Z,5.37
2023-03-22T04:21:53.947Z,4.53
2023-03-22T04:24:22.409Z,4.70
2023-03-22T04:26:56.962Z,3.87
2023-03-22T04:29:33.216Z,6.70
2023-03-22T04:32:07.229Z,6.23
2023-03-22T04:34:34.844Z,3.30
2023-03-22T04:37:09.176Z,3.97
2023-03-22T04:39:43.747Z,4.23
2023-03-22T04:42:11.780Z,4.50
2023-03-22T04:44:46.291Z,5.13
2023-03-22T04:47:13.604Z,3.77
2023-03-22T04:49:49.248Z,2.43
2023-03-22T04:52:17.585Z,3.63
2023-03-22T04:54:54.625Z,4.87
2023-03-22T04:57:22.771Z,5.67
2023-03-22T05:00:00.208Z,4.37
2023-03-22T05:02:34.276Z,3.57
2023-03-22T05:05:01.781Z,3.67
2023-03-22T05:07:36.194Z,5.13
2023-03-22T05:10:03.739Z,3.97
2023-03-22T05:12:38.211Z,5.13
2023-03-22T05:15:20.232Z,3.00
2023-03-22T05:17:54.199Z,4.20
2023-03-22T05:20:21.618Z,3.87
2023-03-22T05:22:57.227Z,6.67
2023-03-22T05:25:32.262Z,4.13
2023-03-22T05:28:09.208Z,4.07
2023-03-22T05:30:44.231Z,5.73
2023-03-22T05:33:12.861Z,5.90
2023-03-22T05:35:50.297Z,4.77
2023-03-22T05:38:21.003Z,3.33
2023-03-22T05:40:56.338Z,4.27
2023-03-22T05:43:25.999Z,8.73
2023-03-22T05:46:02.397Z,7.73
2023-03-22T05:48:31.253Z,3.83
2023-03-22T05:51:07.340Z,4.00
2023-03-22T05:53:43.340Z,6.87
2023-03-22T05:56:17.361Z,3.23
2023-03-22T05:58:51.340Z,11.50
2023-03-22T06:01:28.450Z,5.17
2023-03-22T06:03:55.911Z,3.57
2023-03-22T06:06:24.020Z,4.20
2023-03-22T06:09:10.588Z,3.40
2023-03-22T06:11:49.371Z,3.67
2023-03-22T06:14:24.416Z,6.13
2023-03-22T06:16:58.369Z,3.13
2023-03-22T06:19:33.388Z,7.00
2023-03-22T06:22:00.823Z,5.00
2023-03-22T06:24:34.369Z,4.67
2023-03-22T06:27:08.422Z,4.43
2023-03-22T06:29:43.398Z,3.20
2023-03-22T06:32:18.350Z,4.83
2023-03-22T06:34:52.419Z,5.03
2023-03-22T06:37:26.572Z,4.93
2023-03-22T06:40:09.363Z,3.67
2023-03-22T06:42:40.724Z,7.63
2023-03-22T06:45:15.737Z,4.87
2023-03-22T06:47:44.825Z,2.37
2023-03-22T06:50:19.337Z,2.83
2023-03-22T06:52:53.395Z,2.77
2023-03-22T06:55:28.544Z,3.57
2023-03-22T06:57:56.035Z,3.03
2023-03-22T07:00:30.560Z,2.63
2023-03-22T07:02:59.748Z,3.37
2023-03-22T07:05:35.506Z,5.33
2023-03-22T07:08:03.536Z,3.30
2023-03-22T07:10:31.422Z,2.40
2023-03-22T07:13:05.532Z,2.40
2023-03-22T07:15:34.479Z,2.58
2023-03-22T07:18:09.495Z,3.20
2023-03-22T07:20:38.912Z,3.08
2023-03-22T07:23:12.484Z,3.40
2023-03-22T07:25:40.812Z,3.47
2023-03-22T07:28:17.566Z,2.15
2023-03-22T07:30:51.526Z,2.97
2023-03-22T07:33:19.254Z,5.13
2023-03-22T07:36:09.548Z,3.15
2023-03-22T07:38:45.668Z,1.83
2023-03-22T07:41:20.557Z,2.40
2023-03-22T07:43:56.693Z,3.47
2023-03-22T07:46:34.605Z,3.00
2023-03-22T07:49:09.534Z,2.55
2023-03-22T07:51:37.173Z,2.70
2023-03-22T07:54:14.050Z,1.50
2023-03-22T07:56:48.173Z,1.40
2023-03-22T07:59:23.617Z,0.60
2023-03-22T08:01:58.743Z,2.08
2023-03-22T08:04:26.627Z,2.08
2023-03-22T08:07:05.519Z,1.30
2023-03-22T08:09:33.386Z,1.27
2023-03-22T08:12:07.575Z,2.35
2023-03-22T08:14:48.520Z,1.55
2023-03-22T08:17:22.608Z,2.60
2023-03-22T08:19:56.582Z,1.35
2023-03-22T08:22:32.623Z,1.13
2023-03-22T08:25:00.509Z,1.13
2023-03-22T08:27:34.603Z,0.80
2023-03-22T08:30:02.580Z,0.98
2023-03-22T08:32:37.664Z,2.20
2023-03-22T08:35:06.580Z,1.73
2023-03-22T08:37:40.559Z,1.85
2023-03-22T08:40:10.078Z,1.52
2023-03-22T08:42:44.577Z,0.35
2023-03-22T08:45:12.547Z,0.50
2023-03-22T08:47:48.619Z,0.57
2023-03-22T08:50:22.706Z,0.73
2023-03-22T08:55:31.554Z,1.10
2023-03-22T08:58:06.605Z,1.35
2023-03-22T09:00:47.836Z,0.70
2023-03-22T09:03:23.548Z,1.45
2023-03-22T09:05:51.438Z,0.60
2023-03-22T09:08:25.577Z,0.57
2023-03-22T09:10:53.253Z,1.13
2023-03-22T09:13:27.589Z,0.95
2023-03-22T09:15:55.744Z,0.50
2023-03-22T09:18:30.826Z,1.00
2023-03-22T09:21:05.588Z,0.85
2023-03-22T09:23:35.648Z,1.35
2023-03-22T09:26:12.653Z,1.17
2023-03-22T09:28:40.301Z,2.03
2023-03-22T09:31:20.674Z,0.63
2023-03-22T09:33:56.988Z,0.57
2023-03-22T09:36:33.134Z,0.70
2023-03-22T09:39:08.153Z,1.20
2023-03-22T09:41:58.152Z,0.70
2023-03-22T09:44:39.104Z,0.45
2023-03-22T09:47:28.749Z,1.42
2023-03-22T09:50:17.014Z,1.98
2023-03-22T09:52:51.170Z,0.60
2023-03-22T09:55:52.387Z,0.47
2023-03-22T09:58:45.206Z,2.22
2023-03-22T10:01:37.831Z,0.50
2023-03-22T10:04:18.216Z,0.77
2023-03-22T10:06:50.794Z,0.65
2023-03-22T10:09:41.140Z,1.27
2023-03-22T10:12:44.212Z,1.05
2023-03-22T10:15:31.139Z,2.15
2023-03-22T10:18:08.249Z,1.20
2023-03-22T10:20:46.741Z,0.70
2023-03-22T10:23:32.180Z,1.17
2023-03-22T10:26:04.033Z,1.52
2023-03-22T10:29:03.754Z,1.10
2023-03-22T10:31:40.217Z,0.95
2023-03-22T10:34:30.213Z,1.00
2023-03-22T10:37:08.248Z,2.72
2023-03-22T10:39:48.204Z,1.15
2023-03-22T10:42:24.568Z,1.25
2023-03-22T10:45:01.162Z,0.88
2023-03-22T10:48:00.989Z,0.63
2023-03-22T10:50:46.179Z,2.53
2023-03-22T10:53:45.263Z,0.93
2023-03-22T10:56:15.898Z,0.88
2023-03-22T10:58:50.192Z,2.85
2023-03-22T11:01:37.368Z,0.90
2023-03-22T11:04:19.207Z,1.08
2023-03-22T11:06:54.817Z,0.60
2023-03-22T11:09:31.186Z,1.48
2023-03-22T11:12:07.200Z,1.70
2023-03-22T11:14:52.217Z,0.80
2023-03-22T11:17:32.177Z,0.73
2023-03-22T11:20:16.231Z,0.95
2023-03-22T11:22:46.306Z,1.35
2023-03-22T11:25:33.319Z,0.57
2023-03-22T11:28:10.155Z,2.03
2023-03-22T11:30:45.190Z,1.33
2023-03-22T11:33:30.437Z,1.50
2023-03-22T11:36:09.223Z,2.25
2023-03-22T11:38:50.234Z,0.70
2023-03-22T11:41:29.960Z,3.75
2023-03-22T11:44:14.196Z,0.93
2023-03-22T11:46:58.236Z,1.17
2023-03-22T11:49:31.889Z,1.75
2023-03-22T11:52:16.184Z,1.27
2023-03-22T11:54:46.195Z,1.08
2023-03-22T11:57:40.547Z,0.77
2023-03-22T12:00:28.172Z,1.15
2023-03-22T12:03:16.371Z,1.02
2023-03-22T12:05:54.274Z,1.38
2023-03-22T12:08:49.184Z,0.98
2023-03-22T12:11:47.212Z,1.58
2023-03-22T12:14:31.034Z,1.30
2023-03-22T12:17:13.241Z,0.70
2023-03-22T12:20:19.117Z,2.00
2023-03-22T12:22:59.171Z,2.20
2023-03-22T12:25:32.342Z,0.80
2023-03-22T12:28:16.211Z,0.70
2023-03-22T12:30:56.472Z,0.98
2023-03-22T12:33:47.181Z,1.95
2023-03-22T12:36:25.022Z,0.80
2023-03-22T12:39:05.309Z,1.15
2023-03-22T12:41:37.779Z,1.45
2023-03-22T12:44:36.250Z,1.00
2023-03-22T12:47:31.253Z,0.60
2023-03-22T12:50:19.228Z,0.93
2023-03-22T12:53:03.230Z,1.52
2023-03-22T12:55:41.433Z,1.20
2023-03-22T12:58:24.742Z,1.20
2023-03-22T13:01:25.839Z,0.65
2023-03-22T13:03:55.047Z,0.90
2023-03-22T13:06:43.704Z,0.90
2023-03-22T13:09:18.251Z,0.80
2023-03-22T13:12:14.984Z,0.80
2023-03-22T13:14:58.789Z,2.25
2023-03-22T13:17:32.744Z,2.35
2023-03-22T13:20:18.770Z,2.67
2023-03-22T13:22:55.810Z,1.20
2023-03-22T13:25:43.054Z,1.02
2023-03-22T13:28:30.769Z,1.00
2023-03-22T13:30:59.247Z,0.75
2023-03-22T13:33:41.719Z,2.80
2023-03-22T13:36:25.266Z,1.08
2023-03-22T13:39:05.738Z,1.45
2023-03-22T13:41:36.215Z,1.50
2023-03-22T13:44:30.761Z,1.20
2023-03-22T13:47:07.780Z,1.30
2023-03-22T13:49:50.767Z,3.35
2023-03-22T13:52:34.821Z,1.13
2023-03-22T13:55:02.597Z,1.48
2023-03-22T13:57:53.772Z,1.60
2023-03-22T14:00:36.820Z,1.27
2023-03-22T14:03:21.942Z,0.80
2023-03-22T14:05:56.638Z,1.52
2023-03-22T14:08:35.764Z,2.90
2023-03-22T14:11:32.960Z,2.15
2023-03-22T14:14:26.833Z,1.20
2023-03-22T14:17:02.504Z,2.13
2023-03-22T14:19:40.789Z,1.77
2023-03-22T14:54:22.189Z,1.75
2023-03-22T14:56:56.856Z,1.20
2023-03-22T14:59:24.811Z,2.78
2023-03-22T15:02:09.938Z,1.10
2023-03-22T15:04:43.909Z,1.30
2023-03-22T15:07:19.320Z,2.38
2023-03-22T15:09:49.682Z,2.47
2023-03-22T15:12:24.897Z,1.92
2023-03-22T15:15:03.233Z,1.48
2023-03-22T15:17:43.920Z,2.33
2023-03-22T15:20:22.802Z,1.40
2023-03-22T15:23:01.134Z,2.63
2023-03-22T15:25:42.167Z,2.45
2023-03-22T15:28:19.956Z,1.63
2023-03-22T15:30:56.944Z,1.30
2023-03-22T15:33:31.053Z,1.60
2023-03-22T15:36:09.947Z,1.80
2023-03-22T15:38:48.980Z,1.08
2023-03-22T15:41:44.406Z,1.42
2023-03-22T15:44:22.687Z,3.60
2023-03-22T15:47:07.937Z,1.58
2023-03-22T15:49:46.953Z,1.65
2023-03-22T15:52:34.975Z,2.95
2023-03-22T15:55:36.927Z,1.15
2023-03-22T15:58:17.206Z,3.15
2023-03-22T16:00:53.024Z,2.33
2023-03-22T16:03:22.108Z,2.40
2023-03-22T16:05:57.072Z,1.73
2023-03-22T16:08:26.214Z,1.40
2023-03-22T16:11:00.930Z,2.90
2023-03-22T16:13:36.619Z,2.55
2023-03-22T16:16:17.115Z,2.92
2023-03-22T16:18:54.306Z,1.80
2023-03-22T16:21:38.157Z,1.73
2023-03-22T16:24:06.956Z,2.20
2023-03-22T16:26:41.954Z,3.13
2023-03-22T16:29:10.042Z,4.65
2023-03-22T16:31:47.910Z,4.90
2023-03-22T16:34:27.030Z,1.92
2023-03-22T16:37:00.942Z,1.85
2023-03-22T16:39:28.502Z,1.20
2023-03-22T16:42:03.014Z,2.35
2023-03-22T16:44:30.764Z,1.33
2023-03-22T16:46:58.336Z,1.63
2023-03-22T16:49:32.977Z,1.27
2023-03-22T16:52:00.799Z,9.30
2023-03-22T16:54:30.216Z,1.98
2023-03-22T16:57:05.165Z,1.73
2023-03-22T16:59:40.214Z,1.85
2023-03-22T17:02:41.232Z,3.10
2023-03-22T17:05:16.238Z,1.45
2023-03-22T17:07:51.172Z,4.05
2023-03-22T17:10:26.210Z,2.28
2023-03-22T17:13:00.494Z,1.63
2023-03-22T17:15:45.470Z,2.88
2023-03-22T17:18:20.285Z,5.78
2023-03-22T17:20:48.840Z,1.75
2023-03-22T17:23:23.269Z,1.48
2023-03-22T17:25:52.786Z,3.47
2023-03-22T17:28:29.372Z,1.15
2023-03-22T17:31:06.374Z,4.13
2023-03-22T17:33:41.221Z,1.95
2023-03-22T17:36:20.264Z,3.70
2023-03-22T17:39:13.212Z,1.05
2023-03-22T17:41:50.454Z,1.85
2023-03-22T17:44:26.505Z,2.35
2023-03-22T17:47:30.272Z,1.05
2023-03-22T17:49:48.459Z,1.58
2023-03-22T17:52:23.643Z,1.67
2023-03-22T17:58:06.975Z,0.73
2023-03-22T18:00:35.467Z,2.70
2023-03-22T18:03:09.837Z,2.97
2023-03-22T18:05:44.498Z,1.00
2023-03-22T18:08:27.285Z,1.48
2023-03-22T18:11:03.606Z,2.00
2023-03-22T18:13:56.715Z,2.58
2023-03-22T18:16:53.247Z,1.75
2023-03-22T18:19:21.515Z,1.55
2023-03-22T18:22:04.529Z,1.40
2023-03-22T18:24:45.548Z,2.22
2023-03-22T18:27:20.475Z,2.67
2023-03-22T18:29:54.454Z,3.42
2023-03-22T18:32:26.415Z,2.42
2023-03-22T18:35:07.111Z,3.00
2023-03-22T18:37:43.515Z,3.13
2023-03-22T18:43:07.631Z,2.13
2023-03-22T18:45:56.706Z,1.27
2023-03-22T18:48:28.590Z,1.75
2023-03-22T18:51:10.874Z,0.98
2023-03-22T18:53:40.616Z,2.78
2023-03-22T18:56:17.613Z,1.75
2023-03-22T18:58:46.612Z,1.60
2023-03-22T19:01:20.749Z,1.63
2023-03-22T19:03:54.486Z,2.95
2023-03-22T19:06:29.558Z,1.42
2023-03-22T19:08:57.428Z,3.15
2023-03-22T19:11:32.532Z,1.83
2023-03-22T19:14:59.555Z,1.38
2023-03-22T19:17:03.162Z,2.40
2023-03-22T19:19:39.506Z,1.85
2023-03-22T19:22:07.192Z,3.22
2023-03-22T19:24:43.524Z,1.40
2023-03-22T19:27:18.331Z,1.10
2023-03-22T19:29:55.617Z,1.98
2023-03-22T19:32:24.065Z,1.70
2023-03-22T19:34:58.482Z,1.83
2023-03-22T19:37:26.497Z,1.90
2023-03-22T19:40:58.746Z,1.80
2023-03-22T19:42:48.030Z,2.45
2023-03-22T19:45:22.591Z,2.13
2023-03-22T19:48:04.023Z,1.88
2023-03-22T19:50:38.792Z,1.80
2023-03-22T19:53:40.024Z,1.95
2023-03-22T19:56:03.676Z,1.65
2023-03-22T19:58:40.836Z,1.40
2023-03-22T20:01:10.458Z,5.03
2023-03-22T20:03:46.646Z,2.17
2023-03-22T20:06:14.503Z,1.25
2023-03-22T20:08:50.544Z,1.33
2023-03-22T20:11:32.143Z,1.20
2023-03-22T20:14:19.514Z,1.70
2023-03-22T20:16:51.567Z,1.13
2023-03-22T20:19:30.565Z,1.15
2023-03-22T20:21:58.458Z,2.13
2023-03-22T20:24:32.531Z,2.53
2023-03-22T20:27:00.835Z,1.52
2023-03-22T20:29:37.789Z,1.70
2023-03-22T20:32:11.500Z,2.80
2023-03-22T20:34:45.521Z,1.52
2023-03-22T20:37:13.684Z,1.60
2023-03-22T20:39:41.325Z,2.80
2023-03-22T20:42:16.567Z,2.90
2023-03-22T20:44:44.257Z,2.08
2023-03-22T20:47:15.347Z,1.85
2023-03-22T20:49:49.564Z,1.10
2023-03-22T20:52:23.495Z,3.03
2023-03-22T20:54:57.757Z,6.65
2023-03-22T20:57:31.898Z,2.85
2023-03-22T21:00:04.212Z,2.75
2023-03-22T21:02:39.620Z,1.15
2023-03-22T21:05:10.616Z,2.95
2023-03-22T21:07:44.561Z,3.88
2023-03-22T21:10:14.399Z,1.67
2023-03-22T21:12:51.580Z,1.00
2023-03-22T21:15:25.613Z,2.03
2023-03-22T21:18:04.513Z,0.70
2023-03-22T21:20:38.544Z,2.33
2023-03-22T21:23:12.778Z,2.05
2023-03-22T21:25:40.975Z,1.42
2023-03-22T21:28:15.606Z,1.13
2023-03-22T21:30:50.630Z,2.97
2023-03-22T21:33:24.542Z,1.25
2023-03-22T21:36:02.617Z,1.20
2023-03-22T21:38:34.858Z,2.00
2023-03-22T21:41:09.615Z,1.67
2023-03-22T21:43:38.757Z,1.27
2023-03-22T21:46:17.541Z,1.40
2023-03-22T21:48:45.043Z,1.75
2023-03-22T21:51:14.290Z,3.28
2023-03-22T21:53:50.896Z,3.10
2023-03-22T21:56:18.876Z,1.13
2023-03-22T21:58:52.586Z,1.50
2023-03-22T22:01:26.565Z,1.23
2023-03-22T22:03:54.270Z,1.13
2023-03-22T22:06:28.580Z,1.25
2023-03-22T22:08:58.077Z,2.03
2023-03-22T22:11:25.682Z,1.38
2023-03-22T22:13:59.838Z,1.35
2023-03-22T22:16:34.539Z,1.73
2023-03-22T22:19:09.536Z,1.27
2023-03-22T22:21:43.565Z,1.00
2023-03-22T22:24:17.577Z,1.30
2023-03-22T22:26:51.567Z,0.80
2023-03-22T22:29:25.528Z,1.92
2023-03-22T22:31:59.547Z,1.60
2023-03-22T22:34:27.305Z,2.10
2023-03-22T22:37:01.582Z,1.17
2023-03-22T22:39:29.186Z,1.35
2023-03-22T22:42:03.536Z,2.08
2023-03-22T22:44:31.047Z,1.10
2023-03-22T22:47:05.527Z,1.23
2023-03-22T22:49:39.671Z,1.95
2023-03-22T22:52:16.560Z,0.88
2023-03-22T22:54:44.096Z,1.25
2023-03-22T22:57:18.589Z,1.17
2023-03-22T22:59:46.302Z,1.20
2023-03-22T23:02:21.566Z,1.08
2023-03-22T23:04:55.573Z,2.22
2023-03-22T23:07:29.553Z,1.20
2023-03-22T23:09:57.273Z,0.82
2023-03-22T23:12:31.640Z,2.67
2023-03-22T23:15:18.258Z,1.20
2023-03-22T23:17:57.685Z,3.05
2023-03-22T23:20:38.592Z,1.70
2023-03-22T23:23:09.395Z,1.83
2023-03-22T23:25:44.571Z,1.50
2023-03-22T23:28:13.246Z,3.05
2023-03-22T23:30:47.543Z,1.15
2023-03-22T23:33:15.946Z,2.25
2023-03-22T23:35:50.602Z,1.30
2023-03-22T23:38:24.569Z,2.10
2023-03-22T23:41:01.589Z,1.33
2023-03-22T23:43:35.582Z,1.58
2023-03-22T23:46:03.450Z,1.40
2023-03-22T23:48:42.574Z,1.35
2023-03-22T23:51:13.989Z,2.25
2023-03-22T23:53:48.618Z,1.40
2023-03-22T23:56:25.622Z,1.30
2023-03-22T23:58:59.608Z,1.15
